Time;durP1;ratioP1;P1;durP2;ratioP2;P2;SDS_P1;SDS_P2;PMS_P1;PMS_P2;Temp;Humidity;BMP_temperature;BMP_pressure;BME280_temperature;BME280_humidity;BME280_pressure;Samples;Min_cycle;Max_cycle;Signal;HPM_P1;HPM_P2
2022/10/20 00:01:00;;;;;;;79.15;74.47;;;;;;;15.44;67.75;101026.03;4992385;28;102392;-51
2022/10/20 00:03:29;;;;;;;82.13;77.25;;;;;;;15.43;67.82;101032.59;4993806;28;102167;-50
2022/10/20 00:06:05;;;;;;;88.82;83.60;;;;;;;15.44;67.67;101023.28;4995081;28;102333;-50
2022/10/20 00:08:32;;;;;;;85.95;80.82;;;;;;;15.44;67.91;101027.97;4989798;28;103835;-50
2022/10/20 00:10:59;;;;;;;83.38;78.60;;;;;;;15.44;67.78;101023.28;4994271;28;102211;-50
2022/10/20 00:13:25;;;;;;;77.45;72.70;;;;;;;15.43;68.08;101021.63;4981289;28;102337;-50
2022/10/20 00:15:54;;;;;;;79.70;74.95;;;;;;;15.43;67.76;101027.13;4987398;28;102241;-51
2022/10/20 00:18:22;;;;;;;79.63;74.85;;;;;;;15.44;67.65;101017.81;4992938;28;103983;-50
2022/10/20 00:20:51;;;;;;;80.00;75.40;;;;;;;15.43;67.98;101029.88;4994809;28;102468;-50
2022/10/20 00:23:20;;;;;;;80.20;75.50;;;;;;;15.43;67.85;101029.88;4992091;28;102446;-50
2022/10/20 00:25:47;;;;;;;77.05;72.60;;;;;;;15.43;67.92;101032.59;4989451;28;102349;-50
2022/10/20 00:28:13;;;;;;;79.35;74.80;;;;;;;15.43;67.73;101032.59;4992383;28;104102;-50
2022/10/20 00:30:41;;;;;;;81.60;76.88;;;;;;;15.42;67.87;101036.47;4993576;28;102228;-50
2022/10/20 00:33:07;;;;;;;80.25;75.55;;;;;;;15.42;67.70;101030.97;4990098;28;103369;-51
2022/10/20 00:35:37;;;;;;;78.38;73.80;;;;;;;15.43;68.13;101032.59;4991579;28;102322;-51
2022/10/20 00:38:05;;;;;;;76.85;72.32;;;;;;;15.43;68.01;101035.34;4993265;28;103880;-50
2022/10/20 00:40:32;;;;;;;75.13;70.80;;;;;;;15.43;67.84;101038.09;4994264;28;102474;-50
2022/10/20 00:43:00;;;;;;;77.18;72.70;;;;;;;15.43;67.89;101031.78;4992884;28;102089;-50
2022/10/20 00:45:27;;;;;;;77.60;73.18;;;;;;;15.43;68.24;101021.63;4992050;28;102263;-51
2022/10/20 00:47:58;;;;;;;78.55;74.05;;;;;;;15.43;68.13;101032.59;4986557;28;103960;-57
2022/10/20 00:50:28;;;;;;;76.72;72.43;;;;;;;15.43;68.17;101038.09;4983498;28;102795;-50
2022/10/20 00:52:55;;;;;;;88.60;83.55;;;;;;;15.42;68.11;101033.72;4979364;28;102444;-51
2022/10/20 00:55:27;;;;;;;78.22;73.65;;;;;;;15.42;68.14;101047.44;4996533;28;102587;-50
2022/10/20 00:57:56;;;;;;;75.10;70.80;;;;;;;15.44;67.63;101044.41;4979807;28;103933;-50
2022/10/20 01:00:23;;;;;;;83.85;79.20;;;;;;;15.44;67.72;101047.16;4994376;28;102528;-50
2022/10/20 01:02:51;;;;;;;74.97;70.57;;;;;;;15.43;68.02;101054.53;4981052;28;102341;-50
2022/10/20 01:05:17;;;;;;;82.78;78.10;;;;;;;15.43;68.20;101043.56;4981870;28;104894;-51
2022/10/20 01:07:47;;;;;;;77.07;72.70;;;;;;;15.44;67.87;101042.47;5011021;28;103786;-50
2022/10/20 01:10:14;;;;;;;75.85;71.47;;;;;;;15.43;67.80;101042.75;5010992;28;102198;-50
2022/10/20 01:12:50;;;;;;;83.15;78.45;;;;;;;15.42;68.03;101058.41;5015823;28;101941;-50
2022/10/20 01:15:23;;;;;;;76.28;71.97;;;;;;;15.42;67.72;101046.63;4999966;28;103461;-50
2022/10/20 01:18:02;;;;;;;76.32;71.95;;;;;;;15.42;67.88;101047.44;4986668;28;107934;-50
2022/10/20 01:20:50;;;;;;;71.20;67.10;;;;;;;15.43;68.02;101053.72;4996774;28;101897;-51
2022/10/20 01:23:47;;;;;;;77.43;72.97;;;;;;;15.40;68.06;101055.16;4990942;28;102224;-51
2022/10/20 01:26:36;;;;;;;71.75;67.72;;;;;;;15.42;67.92;101055.66;4996798;28;102333;-50
2022/10/20 01:29:12;;;;;;;77.50;72.95;;;;;;;15.42;67.65;101058.41;4977352;28;103967;-50
2022/10/20 01:31:46;;;;;;;77.72;73.35;;;;;;;15.42;67.83;101063.91;4983173;28;102535;-51
2022/10/20 01:34:19;;;;;;;70.00;66.15;;;;;;;15.42;68.07;101072.13;4996122;28;102289;-51
2022/10/20 01:36:54;;;;;;;80.00;75.43;;;;;;;15.41;67.78;101073.25;4989544;28;102705;-50
2022/10/20 01:39:27;;;;;;;72.38;68.28;;;;;;;15.41;68.17;101073.25;4980352;28;104083;-51
2022/10/20 01:41:58;;;;;;;77.63;73.25;;;;;;;15.41;68.20;101084.22;4997199;28;102305;-50
2022/10/20 01:44:29;;;;;;;74.38;70.07;;;;;;;15.41;67.94;101078.72;5013910;28;101965;-51
2022/10/20 01:46:57;;;;;;;77.00;72.78;;;;;;;15.40;67.67;101082.59;4978147;28;102571;-50
2022/10/20 01:49:25;;;;;;;76.47;72.28;;;;;;;15.40;67.68;101082.59;4994230;28;104725;-50
2022/10/20 01:51:54;;;;;;;81.47;77.03;;;;;;;15.41;67.71;101078.72;5012949;28;102257;-50
2022/10/20 01:54:22;;;;;;;71.30;67.30;;;;;;;15.40;68.41;101077.09;4991923;28;102142;-50
2022/10/20 01:57:04;;;;;;;77.68;73.45;;;;;;;15.42;68.13;101091.31;4985330;28;102170;-50
2022/10/20 01:59:46;;;;;;;77.10;72.70;;;;;;;15.42;67.97;101091.31;4976114;28;104163;-50
2022/10/20 02:02:41;;;;;;;71.85;67.93;;;;;;;15.43;68.03;101092.13;4989115;28;102559;-50
2022/10/20 02:05:22;;;;;;;73.03;68.75;;;;;;;15.40;68.14;101096.31;4970524;28;102208;-50
2022/10/20 02:07:51;;;;;;;72.55;68.57;;;;;;;15.41;67.72;101100.66;4987035;28;102577;-50
2022/10/20 02:10:22;;;;;;;75.25;71.25;;;;;;;15.41;67.74;101095.19;4990500;28;103953;-50
2022/10/20 02:12:52;;;;;;;67.43;63.72;;;;;;;15.41;67.58;101099.84;4992632;28;102507;-50
2022/10/20 02:15:25;;;;;;;70.75;66.63;;;;;;;15.40;67.68;101115.50;4977934;28;102245;-50
2022/10/20 02:17:58;;;;;;;73.93;69.88;;;;;;;15.41;67.76;101108.91;4981741;28;103764;-50
2022/10/20 02:20:29;;;;;;;72.05;68.15;;;;;;;15.41;68.08;101108.09;4994762;28;104007;-50
2022/10/20 02:23:00;;;;;;;72.15;68.22;;;;;;;15.42;68.05;101106.97;4992121;28;102366;-50
2022/10/20 02:25:28;;;;;;;71.55;67.57;;;;;;;15.40;67.91;101101.78;4990203;28;102283;-50
2022/10/20 02:27:57;;;;;;;76.72;72.57;;;;;;;15.41;68.01;101105.34;5010524;28;102246;-50
2022/10/20 02:30:25;;;;;;;75.10;70.93;;;;;;;15.42;67.89;101117.94;5014310;28;104114;-51
2022/10/20 02:32:52;;;;;;;;;;;;;;;15.40;67.56;101118.25;5016181;28;102116;-51
2022/10/20 02:35:22;;;;;;;73.22;69.22;;;;;;;15.42;67.82;101129.72;5007403;28;102706;-50
2022/10/20 02:37:49;;;;;;;68.53;64.78;;;;;;;15.41;67.83;101125.34;4979769;28;102280;-51
2022/10/20 02:40:16;;;;;;;72.70;68.80;;;;;;;15.42;68.09;101135.19;4983451;28;103756;-50
2022/10/20 02:42:42;;;;;;;70.22;66.35;;;;;;;15.41;67.98;101128.09;5013741;28;102350;-51
2022/10/20 02:45:09;;;;;;;70.45;66.57;;;;;;;15.41;68.01;101136.31;5002071;28;102522;-50
2022/10/20 02:47:38;;;;;;;72.05;68.15;;;;;;;15.42;67.76;101140.69;5012405;28;102420;-50
2022/10/20 02:50:06;;;;;;;70.03;66.07;;;;;;;15.41;68.08;101139.06;4988714;28;103854;-50
2022/10/20 02:52:33;;;;;;;67.03;63.33;;;;;;;15.42;67.97;101148.09;4993614;28;102173;-50
2022/10/20 02:54:59;;;;;;;64.75;61.10;;;;;;;15.41;67.70;101161.00;4993083;28;102884;-50
2022/10/20 02:57:26;;;;;;;72.82;68.80;;;;;;;15.40;67.80;101156.63;4995244;28;102200;-50
2022/10/20 02:59:52;;;;;;;67.93;64.25;;;;;;;15.40;68.22;101159.38;4992557;28;105000;-50
2022/10/20 03:02:19;;;;;;;63.78;60.38;;;;;;;15.41;67.93;101161.00;4995106;28;102057;-50
2022/10/20 03:04:48;;;;;;;78.23;73.97;;;;;;;15.42;68.00;101161.81;4995435;28;102287;-50
2022/10/20 03:07:15;;;;;;;68.15;64.35;;;;;;;15.40;68.06;101162.13;4995837;28;102201;-50
2022/10/20 03:09:43;;;;;;;68.32;64.55;;;;;;;15.41;67.87;101160.19;4990285;28;104163;-50
2022/10/20 03:12:09;;;;;;;73.00;69.00;;;;;;;15.40;68.09;101164.88;4995540;28;102483;-50
2022/10/20 03:14:36;;;;;;;68.95;65.15;;;;;;;15.40;68.09;101164.88;4993493;28;102026;-50
2022/10/20 03:17:05;;;;;;;73.43;69.43;;;;;;;15.41;68.03;101177.47;4995032;28;102291;-50
2022/10/20 03:19:32;;;;;;;65.93;62.42;;;;;;;15.40;68.32;101181.31;4989003;28;104019;-50
2022/10/20 03:22:00;;;;;;;70.13;66.35;;;;;;;15.41;68.12;101184.88;4975671;28;102382;-50
2022/10/20 03:24:26;;;;;;;67.03;63.40;;;;;;;15.39;67.81;101180.47;4990637;28;102230;-51
2022/10/20 03:26:53;;;;;;;69.40;65.70;;;;;;;15.39;67.76;101185.16;4988891;28;102238;-50
2022/10/20 03:29:19;;;;;;;70.13;66.30;;;;;;;15.39;68.26;101190.63;4982803;28;103930;-51
2022/10/20 03:31:46;;;;;;;68.43;64.70;;;;;;;15.41;67.84;101193.91;4986493;28;102089;-50
2022/10/20 03:34:15;;;;;;;69.55;65.72;;;;;;;15.39;68.26;101191.44;4992196;28;102379;-50
2022/10/20 03:36:42;;;;;;;74.63;70.68;;;;;;;15.38;68.25;101189.00;4996103;28;102303;-50
2022/10/20 03:39:10;;;;;;;70.07;66.35;;;;;;;15.39;67.89;101196.13;4992463;28;103918;-50
2022/10/20 03:41:37;;;;;;;71.20;67.43;;;;;;;15.38;67.87;101184.34;4993331;28;102810;-50
2022/10/20 03:44:03;;;;;;;66.68;62.92;;;;;;;15.40;68.06;101195.03;4993513;28;102315;-50
2022/10/20 03:46:30;;;;;;;67.80;64.15;;;;;;;15.39;67.96;101196.94;4990102;28;102282;-50
2022/10/20 03:48:58;;;;;;;66.78;63.17;;;;;;;15.38;68.19;101209.03;4992329;28;103013;-51
2022/10/20 03:51:24;;;;;;;68.93;65.22;;;;;;;15.38;68.03;101211.75;4980337;28;102444;-50
2022/10/20 03:53:51;;;;;;;64.35;60.95;;;;;;;15.39;68.10;101204.34;4987387;28;103163;-50
2022/10/20 03:56:19;;;;;;;64.85;61.33;;;;;;;15.37;68.16;101199.16;4987478;28;102510;-50
2022/10/20 03:58:46;;;;;;;62.85;59.45;;;;;;;15.38;67.69;101205.47;4992549;28;103949;-50
2022/10/20 04:01:14;;;;;;;67.93;64.35;;;;;;;15.37;68.06;101210.13;4993492;28;102213;-50
2022/10/20 04:03:42;;;;;;;67.35;63.80;;;;;;;15.37;67.89;101221.09;5006103;28;103319;-50
2022/10/20 04:06:08;;;;;;;66.70;63.10;;;;;;;15.38;67.89;101221.91;5014693;28;102551;-50
2022/10/20 04:08:35;;;;;;;69.63;65.88;;;;;;;15.37;67.86;101231.25;5008185;28;103802;-51
2022/10/20 04:11:01;;;;;;;65.63;62.03;;;;;;;15.36;67.80;101235.09;5012177;28;102188;-50
2022/10/20 04:13:29;;;;;;;66.97;63.30;;;;;;;15.37;67.92;101247.72;5012929;28;102021;-50
2022/10/20 04:15:56;;;;;;;65.47;61.95;;;;;;;15.39;67.95;101254.53;5005953;28;102405;-50
2022/10/20 04:18:22;;;;;;;67.20;63.55;;;;;;;15.37;68.14;101258.69;5001799;28;104840;-51
2022/10/20 04:20:48;;;;;;;61.22;58.03;;;;;;;15.36;67.78;101262.53;5015252;28;102502;-51
2022/10/20 04:23:16;;;;;;;63.85;60.53;;;;;;;15.36;68.04;101265.25;5011562;28;103309;-51
2022/10/20 04:25:47;;;;;;;65.38;61.92;;;;;;;15.35;68.02;101261.69;5013362;28;104876;-50
2022/10/20 04:28:15;;;;;;;67.38;63.80;;;;;;;15.36;68.09;101257.03;5012706;28;103933;-51
2022/10/20 04:30:44;;;;;;;68.53;65.00;;;;;;;15.36;68.08;101265.25;5013257;28;102187;-50
2022/10/20 04:33:12;;;;;;;62.33;58.97;;;;;;;15.35;67.79;101267.19;5012855;28;102268;-50
2022/10/20 04:35:40;;;;;;;59.17;56.07;;;;;;;15.35;67.71;101266.38;5014406;28;102470;-50
2022/10/20 04:38:07;;;;;;;64.63;61.20;;;;;;;15.35;68.01;101264.44;5012765;28;104062;-50
2022/10/20 04:40:34;;;;;;;62.97;59.60;;;;;;;15.35;67.87;101271.88;5012001;28;102219;-50
2022/10/20 04:43:00;;;;;;;66.97;63.42;;;;;;;15.34;68.07;101276.53;5011969;28;102592;-50
2022/10/20 04:45:27;;;;;;;63.92;60.65;;;;;;;15.36;67.76;101292.69;5015341;28;102274;-51
2022/10/20 04:47:55;;;;;;;66.80;63.40;;;;;;;15.35;67.64;101300.09;5008986;28;104051;-50
2022/10/20 04:50:21;;;;;;;64.97;61.58;;;;;;;15.37;67.86;101308.06;5011514;28;102123;-51
2022/10/20 04:52:50;;;;;;;62.85;59.55;;;;;;;15.37;67.85;101314.34;5013106;28;102343;-50
2022/10/20 04:55:20;;;;;;;57.70;54.67;;;;;;;15.37;67.37;101313.53;5014614;27;102211;-51
2022/10/20 04:57:46;;;;;;;61.00;57.50;;;;;;;15.38;67.30;101323.41;5013100;28;104000;-51
2022/10/20 05:00:14;;;;;;;60.80;57.50;;;;;;;15.39;67.52;101330.50;5011614;28;102254;-51
2022/10/20 05:02:41;;;;;;;60.95;57.83;;;;;;;15.39;67.24;101330.50;5012921;28;102669;-51
2022/10/20 05:05:08;;;;;;;69.53;65.93;;;;;;;15.41;67.03;101336.53;5004882;28;102558;-50
2022/10/20 05:07:35;;;;;;;64.28;60.88;;;;;;;15.42;67.06;101332.69;5011150;28;103999;-50
2022/10/20 05:10:02;;;;;;;63.35;60.08;;;;;;;15.43;66.93;101339.78;5001240;28;102255;-50
2022/10/20 05:12:29;;;;;;;61.88;58.63;;;;;;;15.42;66.94;101351.06;4997401;28;102601;-50
2022/10/20 05:14:57;;;;;;;57.65;54.65;;;;;;;15.42;67.03;101349.13;4994881;28;102455;-50
2022/10/20 05:17:28;;;;;;;;;;;;;;;15.42;66.70;101354.63;4993949;28;104115;-50
2022/10/20 05:19:54;;;;;;;68.90;65.30;;;;;;;15.42;66.63;101357.38;5003753;28;102291;-51
2022/10/20 05:22:22;;;;;;;63.42;60.20;;;;;;;15.42;66.55;101371.06;5009572;28;102631;-50
2022/10/20 05:24:51;;;;;;;74.80;70.93;;;;;;;15.42;66.34;101364.78;5007367;28;102378;-50
2022/10/20 05:27:17;;;;;;;61.33;58.13;;;;;;;15.43;66.26;101360.91;4992325;28;104921;-51
2022/10/20 05:29:44;;;;;;;67.05;63.65;;;;;;;15.42;66.84;101382.03;4997550;27;102539;-51
2022/10/20 05:32:11;;;;;;;60.92;57.78;;;;;;;15.43;66.76;101380.94;4993505;28;102637;-50
2022/10/20 05:34:38;;;;;;;67.53;64.00;;;;;;;15.42;66.63;101386.72;4998749;28;102316;-50
2022/10/20 05:37:04;;;;;;;65.53;62.00;;;;;;;15.41;67.03;101391.41;4993458;28;104776;-50
2022/10/20 05:39:32;;;;;;;62.10;58.90;;;;;;;15.41;67.18;101398.81;5001540;28;103917;-50
2022/10/20 05:42:01;;;;;;;62.35;59.20;;;;;;;15.40;67.05;101395.25;5002486;28;102233;-50
2022/10/20 05:44:28;;;;;;;65.03;61.63;;;;;;;15.39;67.40;101399.88;5000028;28;102183;-50
2022/10/20 05:46:56;;;;;;;;;;;;;;;15.38;67.32;101403.75;4995708;28;104197;-50
2022/10/20 05:49:23;;;;;;;70.38;66.75;;;;;;;15.38;67.43;101401.00;5014748;28;101987;-50
2022/10/20 05:51:49;;;;;;;61.25;58.13;;;;;;;15.39;67.08;101404.56;5011789;28;102496;-51
2022/10/20 05:54:16;;;;;;;64.13;60.83;;;;;;;15.38;66.82;101391.97;5014866;28;102793;-50
2022/10/20 05:56:44;;;;;;;66.68;63.30;;;;;;;15.38;67.01;101409.22;5013551;28;103766;-50
2022/10/20 05:59:11;;;;;;;63.50;60.23;;;;;;;15.37;67.22;101406.78;5014586;28;102380;-50
2022/10/20 06:01:46;;;;;;;71.33;67.73;;;;;;;15.38;67.25;101405.69;5013751;28;102140;-51
2022/10/20 06:04:13;;;;;;;59.65;56.63;;;;;;;15.37;67.03;101412.28;5015649;28;102329;-50
2022/10/20 06:06:40;;;;;;;61.67;58.53;;;;;;;15.35;67.49;101409.81;5011968;28;104092;-51
2022/10/20 06:09:07;;;;;;;62.15;59.03;;;;;;;15.35;67.07;101415.28;5004112;28;102576;-51
2022/10/20 06:11:35;;;;;;;65.35;61.97;;;;;;;15.36;67.23;101405.13;5005163;28;102346;-50
2022/10/20 06:14:02;;;;;;;65.30;61.90;;;;;;;15.35;67.14;101414.47;5002633;28;102429;-50
2022/10/20 06:16:33;;;;;;;62.30;59.10;;;;;;;15.35;67.35;101409.81;5012668;28;104136;-51
2022/10/20 06:19:01;;;;;;;67.43;63.93;;;;;;;15.36;67.27;101416.09;5013922;28;102159;-50
2022/10/20 06:21:30;;;;;;;59.63;56.60;;;;;;;15.36;66.92;101416.09;4997577;28;102502;-50
2022/10/20 06:23:58;;;;;;;61.60;58.45;;;;;;;15.35;67.29;101425.44;5000751;28;102663;-50
2022/10/20 06:26:28;;;;;;;65.10;61.75;;;;;;;15.36;67.19;101432.56;5013779;28;103962;-50
2022/10/20 06:28:56;;;;;;;66.05;62.67;;;;;;;15.34;67.10;101432.84;4996751;28;101957;-50
2022/10/20 06:31:26;;;;;;;68.47;64.97;;;;;;;15.35;66.89;101430.94;4999895;28;102130;-50
2022/10/20 06:33:53;;;;;;;60.60;57.50;;;;;;;15.35;67.08;101433.66;5014765;28;102186;-50
2022/10/20 06:36:23;;;;;;;64.78;61.45;;;;;;;15.36;66.89;101435.28;5012886;28;104065;-51
2022/10/20 06:38:52;;;;;;;64.85;61.55;;;;;;;15.35;66.73;101430.94;5010114;28;102342;-50
2022/10/20 06:41:25;;;;;;;68.88;65.28;;;;;;;15.35;65.72;101441.91;5013279;28;102609;-51
2022/10/20 06:43:58;;;;;;;71.70;67.90;;;;;;;15.34;65.66;101440.28;5014019;28;102481;-50
2022/10/20 06:46:28;;;;;;;70.85;67.22;;;;;;;15.34;65.29;101435.59;5012752;28;103929;-50
2022/10/20 06:48:55;;;;;;;75.10;71.20;;;;;;;15.32;65.54;101436.97;5013730;28;102445;-50
2022/10/20 06:51:22;;;;;;;71.93;68.18;;;;;;;15.34;65.54;101440.28;5012577;28;102229;-50
2022/10/20 06:53:50;;;;;;;76.53;72.65;;;;;;;15.35;65.36;101441.91;4999396;28;102097;-50
2022/10/20 06:56:18;;;;;;;77.70;73.63;;;;;;;15.33;65.28;101455.91;4993281;28;104121;-51
2022/10/20 06:58:46;;;;;;;84.47;80.23;;;;;;;15.33;65.12;101455.09;4996206;28;102506;-51
2022/10/20 07:01:14;;;;;;;73.57;69.83;;;;;;;15.34;64.77;101445.75;5013687;28;102727;-50
2022/10/20 07:03:43;;;;;;;78.33;74.40;;;;;;;15.33;64.84;101455.91;5013093;28;102161;-50
2022/10/20 07:06:15;;;;;;;79.28;75.20;;;;;;;15.35;64.70;101461.09;5011932;28;103941;-50
2022/10/20 07:08:42;;;;;;;83.68;79.40;;;;;;;15.35;65.26;101472.06;5013486;28;104651;-50
2022/10/20 07:11:12;;;;;;;78.03;74.07;;;;;;;15.34;65.20;101463.03;5012877;28;102212;-50
2022/10/20 07:13:39;;;;;;;77.90;73.90;;;;;;;15.33;65.01;101468.81;5013740;28;102649;-50
2022/10/20 07:16:07;;;;;;;84.10;79.63;;;;;;;15.34;65.25;101462.22;5012819;28;104274;-51
2022/10/20 07:18:34;;;;;;;75.32;71.32;;;;;;;15.35;64.93;101472.06;5013307;28;102015;-50
2022/10/20 07:21:04;;;;;;;82.97;78.73;;;;;;;15.36;64.65;101465.47;5012742;28;102301;-50
2022/10/20 07:23:33;;;;;;;77.13;73.13;;;;;;;15.34;65.08;101462.22;5013368;28;102405;-50
2022/10/20 07:26:00;;;;;;;83.88;79.63;;;;;;;15.34;65.01;101464.94;5012524;28;104218;-50
2022/10/20 07:28:27;;;;;;;76.38;72.50;;;;;;;15.34;64.82;101464.94;5013013;28;102307;-50
2022/10/20 07:30:53;;;;;;;81.15;77.00;;;;;;;15.33;65.12;101472.38;4997379;28;102518;-50
2022/10/20 07:33:20;;;;;;;78.75;74.72;;;;;;;15.33;64.68;101471.53;5005702;28;102956;-50
2022/10/20 07:35:48;;;;;;;75.13;71.30;;;;;;;15.32;65.23;101464.41;5011039;28;103846;-50
2022/10/20 07:38:16;;;;;;;82.63;78.33;;;;;;;15.35;64.36;101469.31;5012401;28;102414;-50
2022/10/20 07:40:43;;;;;;;83.28;79.10;;;;;;;15.35;64.61;101456.44;5012314;28;102588;-50
2022/10/20 07:43:09;;;;;;;84.80;80.38;;;;;;;15.35;64.36;101450.13;5013505;28;102200;-50
2022/10/20 07:45:37;;;;;;;79.20;75.13;;;;;;;15.36;64.04;101465.47;5011998;28;103935;-50
2022/10/20 07:48:05;;;;;;;80.30;75.97;;;;;;;15.36;64.21;101454.50;5012768;28;102096;-50
2022/10/20 07:50:32;;;;;;;89.30;84.82;;;;;;;15.36;64.27;101459.97;5012673;28;102408;-50
2022/10/20 07:52:59;;;;;;;84.10;79.82;;;;;;;15.35;64.45;101461.09;5004892;28;102760;-50
2022/10/20 07:55:28;;;;;;;85.60;81.35;;;;;;;15.37;64.61;101453.41;4991911;28;103997;-50
2022/10/20 07:57:55;;;;;;;82.53;78.35;;;;;;;15.38;64.26;101457.78;5012033;28;102023;-51
2022/10/20 08:00:21;;;;;;;86.07;81.70;;;;;;;15.39;64.08;101462.16;5012365;28;102651;-50
2022/10/20 08:02:48;;;;;;;84.65;80.38;;;;;;;15.38;63.88;101468.75;5013296;28;102701;-51
2022/10/20 08:05:14;;;;;;;83.85;79.50;;;;;;;15.40;64.43;101461.06;5011401;28;104035;-50
2022/10/20 08:07:41;;;;;;;86.65;82.35;;;;;;;15.40;64.29;101466.56;5012026;28;102224;-50
2022/10/20 08:10:09;;;;;;;81.13;77.03;;;;;;;15.41;64.37;101456.41;4999329;28;102383;-50
2022/10/20 08:12:37;;;;;;;83.15;78.78;;;;;;;15.41;64.20;101457.22;4993538;28;102597;-50
2022/10/20 08:15:06;;;;;;;86.07;81.72;;;;;;;15.43;64.20;101446.75;5006115;28;104708;-51
2022/10/20 08:17:33;;;;;;;89.15;84.68;;;;;;;15.43;63.70;101455.00;4993706;28;102674;-50
2022/10/20 08:20:00;;;;;;;83.90;79.28;;;;;;;15.44;63.75;101451.16;4991897;28;102409;-50
2022/10/20 08:22:26;;;;;;;90.85;86.35;;;;;;;15.43;63.75;101455.00;4992603;28;102174;-50
2022/10/20 08:24:53;;;;;;;83.15;78.95;;;;;;;15.44;63.76;101461.31;4991760;28;103707;-50
2022/10/20 08:27:19;;;;;;;80.88;76.80;;;;;;;15.43;63.44;101452.25;4999767;28;102269;-51
2022/10/20 08:29:47;;;;;;;87.40;82.85;;;;;;;15.45;63.49;101463.75;5006770;28;102110;-50
2022/10/20 08:32:14;;;;;;;85.73;81.43;;;;;;;15.44;63.47;101473.13;5012864;28;102259;-50
2022/10/20 08:34:40;;;;;;;83.28;79.13;;;;;;;15.45;63.31;101473.94;5002927;28;104011;-50
2022/10/20 08:37:07;;;;;;;87.57;83.15;;;;;;;15.44;63.49;101464.88;5011112;28;102302;-50
2022/10/20 08:39:33;;;;;;;76.15;72.35;;;;;;;15.44;63.52;101472.28;5008019;28;102182;-50
2022/10/20 08:42:01;;;;;;;79.35;75.25;;;;;;;15.45;63.35;101482.16;4992776;28;102454;-51
2022/10/20 08:44:31;;;;;;;85.73;81.33;;;;;;;15.42;63.72;101480.78;4991631;28;103926;-50
2022/10/20 08:47:02;;;;;;;77.50;73.70;;;;;;;15.39;63.66;101486.84;5005252;28;102392;-50
2022/10/20 08:49:32;;;;;;;82.65;78.53;;;;;;;15.38;63.79;101490.69;5010847;28;102193;-50
2022/10/20 08:51:59;;;;;;;82.28;78.00;;;;;;;15.38;63.18;101486.03;5006803;28;102729;-50
2022/10/20 08:54:26;;;;;;;79.03;75.13;;;;;;;15.39;63.50;101489.59;4999437;28;104069;-51
2022/10/20 08:56:52;;;;;;;69.53;66.07;;;;;;;15.39;63.30;101481.34;5012234;28;102273;-50
2022/10/20 08:59:25;;;;;;;75.72;71.97;;;;;;;15.39;63.37;101497.81;4996852;28;102462;-50
2022/10/20 09:01:52;;;;;;;71.40;67.80;;;;;;;15.39;62.66;101482.16;4992524;28;102347;-50
2022/10/20 09:04:25;;;;;;;75.53;71.78;;;;;;;15.41;62.66;101489.31;4998215;28;103889;-50
2022/10/20 09:06:56;;;;;;;73.57;69.80;;;;;;;15.41;62.79;101492.88;5011537;28;102118;-50
2022/10/20 09:09:24;;;;;;;74.05;70.28;;;;;;;15.42;62.77;101489.03;5011042;28;102505;-50
2022/10/20 09:11:53;;;;;;;71.63;68.00;;;;;;;15.40;63.10;101483.03;5011738;28;102227;-50
2022/10/20 09:14:21;;;;;;;76.22;72.43;;;;;;;15.39;62.83;101486.84;5013118;28;103889;-50
2022/10/20 09:16:47;;;;;;;71.13;67.53;;;;;;;15.38;63.13;101493.44;5003777;28;102345;-50
2022/10/20 09:19:17;;;;;;;70.68;66.97;;;;;;;15.38;63.33;101479.72;5017326;28;102368;-50
2022/10/20 09:21:49;;;;;;;75.28;71.57;;;;;;;15.39;63.01;101481.34;5015747;28;102595;-50
2022/10/20 09:24:17;;;;;;;74.88;71.10;;;;;;;15.39;62.81;101492.31;4996580;28;103996;-50
2022/10/20 09:26:46;;;;;;;77.32;73.53;;;;;;;15.38;62.55;101486.03;5005062;28;102040;-50
2022/10/20 09:29:15;;;;;;;78.90;74.93;;;;;;;15.37;63.14;101489.88;5016991;28;102383;-50
2022/10/20 09:31:44;;;;;;;74.93;71.22;;;;;;;15.39;62.87;101475.88;5002170;28;102575;-50
2022/10/20 09:34:22;;;;;;;75.13;71.40;;;;;;;15.38;62.80;101485.22;5005752;28;103888;-50
2022/10/20 09:36:54;;;;;;;80.65;76.68;;;;;;;15.38;62.52;101487.97;5010460;28;102731;-50
2022/10/20 09:39:23;;;;;;;76.60;72.90;;;;;;;15.38;62.77;101486.03;5005128;28;102604;-50
2022/10/20 09:41:58;;;;;;;75.40;71.43;;;;;;;15.40;61.89;101483.03;4997599;28;102964;-51
2022/10/20 09:44:25;;;;;;;75.07;71.38;;;;;;;15.40;62.17;101488.50;5008818;27;104125;-50
2022/10/20 09:46:53;;;;;;;73.38;69.35;;;;;;;15.41;62.22;101490.13;5010913;28;102519;-50
2022/10/20 09:49:24;;;;;;;68.13;64.78;;;;;;;15.41;62.01;101484.66;5013589;28;103990;-50
2022/10/20 09:51:52;;;;;;;68.72;65.28;;;;;;;15.42;62.11;101493.69;5016911;28;102569;-50
2022/10/20 09:54:22;;;;;;;68.35;64.85;;;;;;;15.42;62.15;101486.28;5014048;28;103773;-51
2022/10/20 09:56:48;;;;;;;69.50;65.97;;;;;;;15.39;62.19;101489.59;5007066;28;102340;-50
2022/10/20 09:59:21;;;;;;;67.65;64.28;;;;;;;15.39;62.65;101495.88;5010358;28;102565;-50
2022/10/20 10:01:55;;;;;;;69.05;65.55;;;;;;;15.39;62.30;101504.13;5016752;28;102385;-50
2022/10/20 10:04:33;;;;;;;75.22;71.50;;;;;;;15.39;62.38;101492.31;5014702;28;104136;-50
2022/10/20 10:07:02;;;;;;;66.88;63.33;;;;;;;15.39;62.35;101497.81;5014986;28;102248;-50
2022/10/20 10:09:34;;;;;;;67.80;64.50;;;;;;;15.39;62.32;101500.56;5014969;28;102320;-51
2022/10/20 10:12:03;;;;;;;66.00;62.70;;;;;;;15.37;62.34;101497.28;5015080;28;102155;-50
2022/10/20 10:14:35;;;;;;;64.43;61.15;;;;;;;15.38;62.44;101497.00;5010335;28;103936;-50
2022/10/20 10:17:02;;;;;;;69.25;65.75;;;;;;;15.37;62.69;101502.78;5008035;28;102614;-50
2022/10/20 10:19:31;;;;;;;62.90;59.55;;;;;;;15.38;62.46;101496.19;5012538;28;102233;-50
2022/10/20 10:22:03;;;;;;;66.47;63.20;;;;;;;15.37;62.28;101495.38;5009105;28;102290;-50
2022/10/20 10:24:42;;;;;;;71.63;68.07;;;;;;;15.38;61.95;101501.66;5014437;28;103898;-51
2022/10/20 10:27:22;;;;;;;63.50;60.40;;;;;;;15.39;62.68;101501.38;5013875;28;102137;-50
2022/10/20 10:29:48;;;;;;;64.72;61.47;;;;;;;15.37;62.29;101506.34;5007532;28;102271;-50
2022/10/20 10:32:17;;;;;;;62.05;58.72;;;;;;;15.37;61.94;101494.56;5003360;28;102786;-50
2022/10/20 10:35:07;;;;;;;64.90;61.67;;;;;;;15.38;62.39;101501.66;5009303;28;103979;-50
2022/10/20 10:37:37;;;;;;;74.60;70.90;;;;;;;15.37;62.72;101494.56;4998917;28;102102;-50
2022/10/20 10:40:12;;;;;;;69.80;66.40;;;;;;;15.37;62.79;101506.34;5006769;28;102118;-50
2022/10/20 10:43:00;;;;;;;69.97;66.55;;;;;;;15.35;63.18;101497.56;5016371;28;102279;-50
2022/10/20 10:45:47;;;;;;;79.32;75.35;;;;;;;15.38;63.14;101507.16;4997452;28;103953;-50
2022/10/20 10:48:57;;;;;;;69.15;65.78;;;;;;;15.36;63.18;101495.63;5013899;28;101977;-50
2022/10/20 10:51:37;;;;;;;84.35;80.13;;;;;;;15.34;62.88;101490.44;5006278;28;102018;-51
2022/10/20 10:54:19;;;;;;;73.85;70.22;;;;;;;15.37;62.98;101497.28;4996869;28;102668;-50
2022/10/20 10:56:48;;;;;;;78.97;75.15;;;;;;;15.37;63.28;101494.56;5004794;28;104609;-50
2022/10/20 10:59:20;;;;;;;75.10;71.40;;;;;;;15.37;63.59;101491.81;5009532;28;102143;-50
2022/10/20 11:02:16;;;;;;;71.38;67.75;;;;;;;15.38;63.37;101496.19;5000783;28;102693;-50
2022/10/20 11:05:16;;;;;;;75.63;71.90;;;;;;;15.38;63.60;101487.97;5011102;28;102260;-50
2022/10/20 11:07:50;;;;;;;79.68;75.80;;;;;;;15.39;63.79;101497.81;4991562;28;108038;-48
2022/10/20 11:10:25;;;;;;;74.43;70.80;;;;;;;15.40;64.14;101494.00;4995175;28;102186;-48
2022/10/20 11:13:03;;;;;;;75.78;72.07;;;;;;;15.42;64.15;101488.22;4993997;28;103163;-48